createdAt,value
2023-02-09T00:00:16.126Z,75.32
2023-02-09T00:01:21.686Z,75.33
2023-02-09T00:02:24.728Z,75.11
2023-02-09T00:03:26.763Z,75.39
2023-02-09T00:04:29.970Z,75.15
2023-02-09T00:05:32.007Z,75.01
2023-02-09T00:06:35.068Z,75.54
2023-02-09T00:07:36.986Z,75.04
2023-02-09T00:08:39.988Z,75.70
2023-02-09T00:09:42.267Z,75.76
2023-02-09T00:10:46.832Z,75.48
2023-02-09T00:12:07.786Z,75.52
2023-02-09T00:13:25.591Z,75.79
2023-02-09T00:14:27.991Z,75.66
2023-02-09T00:15:31.305Z,75.31
2023-02-09T00:16:33.709Z,75.99
2023-02-09T00:17:37.219Z,75.56
2023-02-09T00:18:40.587Z,75.67
2023-02-09T00:19:42.888Z,75.31
2023-02-09T00:20:46.149Z,75.60
2023-02-09T00:21:48.797Z,75.66
2023-02-09T00:22:52.177Z,75.92
2023-02-09T00:23:54.084Z,75.84
2023-02-09T00:24:57.425Z,75.27
2023-02-09T00:26:01.204Z,75.55
2023-02-09T00:27:04.259Z,75.83
2023-02-09T00:28:07.024Z,75.58
2023-02-09T00:29:10.693Z,75.67
2023-02-09T00:30:13.371Z,75.77
2023-02-09T00:31:16.497Z,74.95
2023-02-09T00:32:18.493Z,75.27
2023-02-09T00:33:21.401Z,74.90
2023-02-09T00:34:23.443Z,75.16
2023-02-09T00:35:26.425Z,75.07
2023-02-09T00:36:29.870Z,75.65
2023-02-09T00:37:32.746Z,76.00
2023-02-09T00:38:35.518Z,75.88
2023-02-09T00:39:38.449Z,75.87
2023-02-09T00:40:41.401Z,76.55
2023-02-09T00:42:03.502Z,76.76
2023-02-09T00:43:07.139Z,76.39
2023-02-09T00:44:09.383Z,76.48
2023-02-09T00:45:12.524Z,75.72
2023-02-09T00:46:15.658Z,75.65
2023-02-09T00:47:18.141Z,75.26
2023-02-09T00:48:21.159Z,74.92
2023-02-09T00:49:23.177Z,74.67
2023-02-09T00:50:27.133Z,74.58
2023-02-09T00:51:29.156Z,74.82
2023-02-09T00:52:32.501Z,75.26
2023-02-09T00:53:34.439Z,75.59
2023-02-09T00:54:37.684Z,74.83
2023-02-09T00:55:39.665Z,75.79
2023-02-09T00:56:43.681Z,75.55
2023-02-09T00:57:47.256Z,75.51
2023-02-09T00:58:50.151Z,75.79
2023-02-09T00:59:52.175Z,75.47
2023-02-09T01:00:55.115Z,76.16
2023-02-09T01:01:57.076Z,76.29
2023-02-09T01:03:00.174Z,75.71
2023-02-09T01:04:02.314Z,76.19
2023-02-09T01:05:05.619Z,75.97
2023-02-09T01:06:08.269Z,75.91
2023-02-09T01:07:11.295Z,75.76
2023-02-09T01:08:13.390Z,75.95
2023-02-09T01:09:16.435Z,75.47
2023-02-09T01:10:18.510Z,75.04
2023-02-09T01:11:22.904Z,74.44
2023-02-09T01:12:24.950Z,74.83
2023-02-09T01:13:29.491Z,74.50
2023-02-09T01:14:32.451Z,74.42
2023-02-09T01:15:35.434Z,74.63
2023-02-09T01:16:37.456Z,75.08
2023-02-09T01:17:40.828Z,75.08
2023-02-09T01:18:43.609Z,75.01
2023-02-09T01:19:47.062Z,74.92
2023-02-09T01:20:49.247Z,75.21
2023-02-09T01:21:52.229Z,75.50
2023-02-09T01:22:54.357Z,76.01
2023-02-09T01:23:57.601Z,75.40
2023-02-09T01:25:00.117Z,75.24
2023-02-09T01:26:03.292Z,75.53
2023-02-09T01:27:06.458Z,75.06
2023-02-09T01:28:08.574Z,75.64
2023-02-09T01:29:15.405Z,75.82
2023-02-09T01:30:17.866Z,75.06
2023-02-09T01:31:25.409Z,75.60
2023-02-09T01:32:28.912Z,75.05
2023-02-09T01:33:31.549Z,74.92
2023-02-09T01:34:34.652Z,75.06
2023-02-09T01:35:36.684Z,75.82
2023-02-09T01:36:39.709Z,75.43
2023-02-09T01:37:41.744Z,74.92
2023-02-09T01:38:45.150Z,75.81
2023-02-09T01:39:48.556Z,75.06
2023-02-09T01:40:50.765Z,75.33
2023-02-09T01:41:53.970Z,75.04
2023-02-09T01:42:55.891Z,75.21
2023-02-09T01:44:00.640Z,75.36
2023-02-09T01:45:15.922Z,75.13
2023-02-09T01:46:19.018Z,75.97
2023-02-09T01:47:21.047Z,76.04
2023-02-09T01:48:28.109Z,75.29
2023-02-09T01:49:30.789Z,75.41
2023-02-09T01:50:36.442Z,75.18
2023-02-09T01:51:41.268Z,74.88
2023-02-09T01:52:46.189Z,74.73
2023-02-09T01:53:48.266Z,75.17
2023-02-09T01:54:53.005Z,74.65
2023-02-09T01:55:57.465Z,75.03
2023-02-09T01:57:03.798Z,74.70
2023-02-09T01:58:09.165Z,75.39
2023-02-09T01:59:12.327Z,75.28
2023-02-09T02:00:18.551Z,75.41
2023-02-09T02:01:22.372Z,74.83
2023-02-09T02:02:24.732Z,75.59
2023-02-09T02:03:28.786Z,75.07
2023-02-09T02:04:30.956Z,75.43
2023-02-09T02:05:35.726Z,75.31
2023-02-09T02:06:37.945Z,75.46
2023-02-09T02:07:46.464Z,74.88
2023-02-09T02:08:51.725Z,74.95
2023-02-09T02:09:55.122Z,75.60
2023-02-09T02:10:57.860Z,75.83
2023-02-09T02:12:00.901Z,75.10
2023-02-09T02:13:03.360Z,75.28
2023-02-09T02:14:06.600Z,76.21
2023-02-09T02:15:09.433Z,75.41
2023-02-09T02:16:24.143Z,74.61
2023-02-09T02:17:37.660Z,74.68
2023-02-09T02:19:03.095Z,75.26
2023-02-09T02:20:37.429Z,75.38
2023-02-09T02:22:04.534Z,75.17
2023-02-09T02:23:11.457Z,75.87
2023-02-09T02:24:31.085Z,75.89
2023-02-09T02:26:15.838Z,75.94
2023-02-09T02:27:27.272Z,76.48
2023-02-09T02:28:41.142Z,76.50
2023-02-09T02:30:13.508Z,74.76
2023-02-09T02:31:55.484Z,74.87
2023-02-09T02:33:07.518Z,75.43
2023-02-09T02:34:12.816Z,75.49
2023-02-09T02:35:20.164Z,75.71
2023-02-09T02:36:27.773Z,75.12
2023-02-09T02:37:50.232Z,75.25
2023-02-09T02:38:54.989Z,76.07
2023-02-09T02:40:04.756Z,75.20
2023-02-09T02:41:13.003Z,75.02
2023-02-09T02:42:40.568Z,75.78
2023-02-09T02:43:50.909Z,75.36
2023-02-09T02:44:56.670Z,75.55
2023-02-09T02:46:02.027Z,74.91
2023-02-09T02:47:05.873Z,75.51
2023-02-09T02:48:17.536Z,74.97
2023-02-09T02:49:24.275Z,74.47
2023-02-09T02:50:29.573Z,75.10
2023-02-09T02:51:35.516Z,74.77
2023-02-09T02:52:38.112Z,74.24
2023-02-09T02:53:43.775Z,74.87
2023-02-09T02:54:49.936Z,75.39
2023-02-09T02:55:54.058Z,75.83
2023-02-09T02:57:00.293Z,75.37
2023-02-09T02:58:05.236Z,74.83
2023-02-09T02:59:10.148Z,75.34
2023-02-09T03:00:14.653Z,74.87
2023-02-09T03:01:20.034Z,75.34
2023-02-09T03:02:24.132Z,74.21
2023-02-09T03:03:32.213Z,75.02
2023-02-09T03:04:34.867Z,74.97
2023-02-09T03:05:38.840Z,74.79
2023-02-09T03:06:41.118Z,75.20
2023-02-09T03:07:44.846Z,74.58
2023-02-09T03:08:52.518Z,74.47
2023-02-09T03:09:56.813Z,75.37
2023-02-09T03:10:58.813Z,75.65
2023-02-09T03:12:06.976Z,74.91
2023-02-09T03:13:21.777Z,74.87
2023-02-09T03:14:37.054Z,74.24
2023-02-09T03:15:45.847Z,74.40
2023-02-09T03:16:52.978Z,74.67
2023-02-09T03:18:01.237Z,75.63
2023-02-09T03:19:12.322Z,75.07
2023-02-09T03:20:17.916Z,75.35
2023-02-09T03:21:27.957Z,75.28
2023-02-09T03:22:34.872Z,75.32
2023-02-09T03:23:42.510Z,75.97
2023-02-09T03:24:48.300Z,74.94
2023-02-09T03:25:53.811Z,75.24
2023-02-09T03:26:58.816Z,75.22
2023-02-09T03:28:04.554Z,74.33
2023-02-09T03:29:07.218Z,75.08
2023-02-09T03:30:14.395Z,74.93
2023-02-09T03:31:16.669Z,74.95
2023-02-09T03:32:20.148Z,74.76
2023-02-09T03:33:24.408Z,75.07
2023-02-09T03:34:29.238Z,74.22
2023-02-09T03:35:36.527Z,75.25
2023-02-09T03:36:41.590Z,75.83
2023-02-09T03:37:43.690Z,75.59
2023-02-09T03:38:47.029Z,75.16
2023-02-09T03:39:49.236Z,76.45
2023-02-09T03:40:52.711Z,76.47
2023-02-09T03:41:55.163Z,75.36
2023-02-09T03:42:58.313Z,75.86
2023-02-09T03:44:20.968Z,75.95
2023-02-09T03:45:23.946Z,75.25
2023-02-09T03:46:26.125Z,75.32
2023-02-09T03:47:30.816Z,75.63
2023-02-09T03:48:32.829Z,75.57
2023-02-09T03:49:39.517Z,75.19
2023-02-09T03:50:41.470Z,75.79
2023-02-09T03:51:44.490Z,75.49
2023-02-09T03:52:46.429Z,74.78
2023-02-09T03:53:49.365Z,74.57
2023-02-09T03:54:51.424Z,75.22
2023-02-09T03:55:54.395Z,74.29
2023-02-09T03:56:56.905Z,75.26
2023-02-09T03:58:00.381Z,75.03
2023-02-09T03:59:02.344Z,75.13
2023-02-09T04:00:06.179Z,74.49
2023-02-09T04:01:27.119Z,74.34
2023-02-09T04:02:30.194Z,74.27
2023-02-09T04:03:32.722Z,74.83
2023-02-09T04:04:37.868Z,75.29
2023-02-09T04:05:39.824Z,75.25
2023-02-09T04:06:42.839Z,75.71
2023-02-09T04:07:44.846Z,75.17
2023-02-09T04:08:47.920Z,74.91
2023-02-09T04:09:50.893Z,75.47
2023-02-09T04:10:52.957Z,75.07
2023-02-09T04:11:56.081Z,75.28
2023-02-09T04:12:58.438Z,75.26
2023-02-09T04:14:01.438Z,75.67
2023-02-09T04:15:03.901Z,75.35
2023-02-09T04:16:07.560Z,75.08
2023-02-09T04:17:10.557Z,75.85
2023-02-09T04:18:12.759Z,75.54
2023-02-09T04:19:15.714Z,75.20
2023-02-09T04:20:19.219Z,74.77
2023-02-09T04:21:22.678Z,74.77
2023-02-09T04:22:25.194Z,75.71
2023-02-09T04:23:28.620Z,75.72
2023-02-09T04:24:32.090Z,74.86
2023-02-09T04:25:34.058Z,74.08
2023-02-09T04:26:37.090Z,73.47
2023-02-09T04:27:39.052Z,73.89
2023-02-09T04:28:41.975Z,74.51
2023-02-09T04:29:44.914Z,74.29
2023-02-09T04:30:52.145Z,74.49
2023-02-09T04:31:55.137Z,74.08
2023-02-09T04:32:57.095Z,75.42
2023-02-09T04:34:00.213Z,74.89
2023-02-09T04:35:02.544Z,74.59
2023-02-09T04:36:08.436Z,75.23
2023-02-09T04:37:11.457Z,74.65
2023-02-09T04:38:13.482Z,74.93
2023-02-09T04:39:16.862Z,75.13
2023-02-09T04:40:19.554Z,74.55
2023-02-09T04:41:22.529Z,74.64
2023-02-09T04:42:25.065Z,74.27
2023-02-09T04:43:28.642Z,75.02
2023-02-09T04:44:31.613Z,74.77
2023-02-09T04:45:33.598Z,75.03
2023-02-09T04:46:37.033Z,75.04
2023-02-09T04:47:39.049Z,75.34
2023-02-09T04:48:41.977Z,74.62
2023-02-09T04:49:44.619Z,74.87
2023-02-09T04:50:48.143Z,74.24
2023-02-09T04:51:51.516Z,74.39
2023-02-09T04:52:54.536Z,74.45
2023-02-09T04:53:57.476Z,74.59
2023-02-09T04:54:59.716Z,75.98
2023-02-09T04:56:03.194Z,75.78
2023-02-09T04:57:23.393Z,75.43
2023-02-09T04:58:43.796Z,74.79
2023-02-09T04:59:46.133Z,75.91
2023-02-09T05:00:49.301Z,74.95
2023-02-09T05:01:52.085Z,75.44
2023-02-09T05:02:55.874Z,73.73
2023-02-09T05:03:57.856Z,74.16
2023-02-09T05:05:00.812Z,74.05
2023-02-09T05:06:04.774Z,74.38
2023-02-09T05:07:09.050Z,75.23
2023-02-09T05:08:11.055Z,74.45
2023-02-09T05:09:14.246Z,74.88
2023-02-09T05:10:16.971Z,74.43
2023-02-09T05:11:19.959Z,74.07
2023-02-09T05:12:41.038Z,74.85
2023-02-09T05:13:44.091Z,75.29
2023-02-09T05:14:45.970Z,74.15
2023-02-09T05:15:49.196Z,74.57
2023-02-09T05:16:51.728Z,74.38
2023-02-09T05:17:54.670Z,75.50
2023-02-09T05:18:57.689Z,75.17
2023-02-09T05:20:00.163Z,75.25
2023-02-09T05:21:03.096Z,75.01
2023-02-09T05:22:05.253Z,75.15
2023-02-09T05:23:09.563Z,74.45
2023-02-09T05:24:12.589Z,74.65
2023-02-09T05:25:14.773Z,74.57
2023-02-09T05:26:18.827Z,75.69
2023-02-09T05:27:20.806Z,74.91
2023-02-09T05:28:23.866Z,75.55
2023-02-09T05:29:26.672Z,74.21
2023-02-09T05:30:30.910Z,74.78
2023-02-09T05:31:32.942Z,75.90
2023-02-09T05:32:36.047Z,74.29
2023-02-09T05:33:38.980Z,75.61
2023-02-09T05:34:41.128Z,74.90
2023-02-09T05:35:44.150Z,74.30
2023-02-09T05:36:47.780Z,75.37
2023-02-09T05:37:50.943Z,74.13
2023-02-09T05:38:55.844Z,74.56
2023-02-09T05:39:57.827Z,75.07
2023-02-09T05:41:05.305Z,74.98
2023-02-09T05:42:16.575Z,74.88
2023-02-09T05:43:19.708Z,74.89
2023-02-09T05:44:21.656Z,75.73
2023-02-09T05:45:24.808Z,74.90
2023-02-09T05:46:26.830Z,74.63
2023-02-09T05:47:29.812Z,74.19
2023-02-09T05:48:31.968Z,74.06
2023-02-09T05:49:35.322Z,75.36
2023-02-09T05:50:38.476Z,75.19
2023-02-09T05:51:43.026Z,75.66
2023-02-09T05:52:46.200Z,75.88
2023-02-09T05:53:48.103Z,75.38
2023-02-09T05:54:52.689Z,75.38
2023-02-09T05:55:54.654Z,75.10
2023-02-09T05:56:57.541Z,75.26
2023-02-09T05:58:00.838Z,75.52
2023-02-09T05:59:04.679Z,75.51
2023-02-09T06:00:08.671Z,74.14
2023-02-09T06:01:16.477Z,75.11
2023-02-09T06:02:19.543Z,73.78
2023-02-09T06:03:21.703Z,75.02
2023-02-09T06:04:25.537Z,73.76
2023-02-09T06:05:28.139Z,74.54
2023-02-09T06:06:31.076Z,73.77
2023-02-09T06:07:33.042Z,74.77
2023-02-09T06:08:35.944Z,74.85
2023-02-09T06:09:37.964Z,74.83
2023-02-09T06:10:42.653Z,75.25
2023-02-09T06:11:44.712Z,74.46
2023-02-09T06:12:47.672Z,75.23
2023-02-09T06:13:49.824Z,74.25
2023-02-09T06:14:52.811Z,73.58
2023-02-09T06:15:54.869Z,74.43
2023-02-09T06:16:58.055Z,73.97
2023-02-09T06:18:00.995Z,73.60
2023-02-09T06:19:02.994Z,74.92
2023-02-09T06:20:06.993Z,74.78
2023-02-09T06:21:08.928Z,74.78
2023-02-09T06:22:11.856Z,74.53
2023-02-09T06:23:13.901Z,75.11
2023-02-09T06:24:17.187Z,74.87
2023-02-09T06:25:19.219Z,75.54
2023-02-09T06:26:42.299Z,74.86
2023-02-09T06:27:45.459Z,75.67
2023-02-09T06:28:47.530Z,75.08
2023-02-09T06:29:50.369Z,74.98
2023-02-09T06:30:53.822Z,74.89
2023-02-09T06:31:56.882Z,75.11
2023-02-09T06:32:58.854Z,74.42
2023-02-09T06:34:01.893Z,75.64
2023-02-09T06:35:04.069Z,76.29
2023-02-09T06:36:09.110Z,75.35
2023-02-09T06:37:12.471Z,76.31
2023-02-09T06:38:14.435Z,76.19
2023-02-09T06:39:17.326Z,77.17
2023-02-09T06:40:20.033Z,76.56
2023-02-09T06:41:23.052Z,76.83
2023-02-09T06:42:43.765Z,76.32
2023-02-09T06:43:46.403Z,75.88
2023-02-09T06:44:49.328Z,75.93
2023-02-09T06:45:51.358Z,75.41
2023-02-09T06:46:54.475Z,75.09
2023-02-09T06:47:56.350Z,75.29
2023-02-09T06:48:59.625Z,74.36
2023-02-09T06:50:02.149Z,73.62
2023-02-09T06:51:09.520Z,73.38
2023-02-09T06:52:12.946Z,73.40
2023-02-09T06:53:16.146Z,72.08
2023-02-09T06:54:20.053Z,72.22
2023-02-09T06:55:21.986Z,72.99
2023-02-09T06:56:24.986Z,72.59
2023-02-09T06:57:30.066Z,72.91
2023-02-09T06:58:33.126Z,74.03
2023-02-09T06:59:35.324Z,73.90
2023-02-09T07:00:38.232Z,74.64
2023-02-09T07:01:40.367Z,74.78
2023-02-09T07:02:44.037Z,73.49
2023-02-09T07:03:47.086Z,73.83
2023-02-09T07:04:49.066Z,74.74
2023-02-09T07:05:52.036Z,75.09
2023-02-09T07:06:54.958Z,76.08
2023-02-09T07:07:56.986Z,75.58
2023-02-09T07:09:00.216Z,75.76
2023-02-09T07:10:02.172Z,76.47
2023-02-09T07:11:06.865Z,76.54
2023-02-09T07:12:09.460Z,76.47
2023-02-09T07:13:13.887Z,76.44
2023-02-09T07:14:18.034Z,76.92
2023-02-09T07:15:20.153Z,76.72
2023-02-09T07:16:23.231Z,76.49
2023-02-09T07:17:25.382Z,76.09
2023-02-09T07:18:29.658Z,77.04
2023-02-09T07:19:33.606Z,77.73
2023-02-09T07:20:35.645Z,77.54
2023-02-09T07:21:38.644Z,78.12
2023-02-09T07:22:41.102Z,78.62
2023-02-09T07:23:44.078Z,78.42
2023-02-09T07:24:46.604Z,78.10
2023-02-09T07:25:49.543Z,78.01
2023-02-09T07:26:52.581Z,78.54
2023-02-09T07:27:55.675Z,78.94
2023-02-09T07:29:00.582Z,79.02
2023-02-09T07:30:02.529Z,79.55
2023-02-09T07:31:25.179Z,79.64
2023-02-09T07:32:27.877Z,79.98
2023-02-09T07:33:30.920Z,80.34
2023-02-09T07:34:34.021Z,80.71
2023-02-09T07:35:40.403Z,80.76
2023-02-09T07:36:42.490Z,79.47
2023-02-09T07:37:45.760Z,79.63
2023-02-09T07:38:48.939Z,79.95
2023-02-09T07:39:50.966Z,80.08
2023-02-09T07:40:54.076Z,80.20
2023-02-09T07:41:57.248Z,80.54
2023-02-09T07:42:59.320Z,80.66
2023-02-09T07:44:03.637Z,79.97
2023-02-09T07:45:07.227Z,80.43
2023-02-09T07:46:11.416Z,80.94
2023-02-09T07:47:13.660Z,81.21
2023-02-09T07:48:17.538Z,81.93
2023-02-09T07:49:19.491Z,82.49
2023-02-09T07:50:22.677Z,82.34
2023-02-09T07:51:25.871Z,82.94
2023-02-09T07:52:27.693Z,82.82
2023-02-09T07:53:30.990Z,82.30
2023-02-09T07:54:34.037Z,83.16
2023-02-09T07:55:37.150Z,83.62
2023-02-09T07:56:40.924Z,83.70
2023-02-09T07:57:43.632Z,83.77
2023-02-09T07:58:46.585Z,83.67
2023-02-09T07:59:51.090Z,83.36
2023-02-09T08:00:54.066Z,83.37
2023-02-09T08:01:57.007Z,83.50
2023-02-09T08:03:00.268Z,83.00
2023-02-09T08:04:03.357Z,82.75
2023-02-09T08:05:10.176Z,82.72
2023-02-09T08:06:19.550Z,82.44
2023-02-09T08:07:23.208Z,82.33
2023-02-09T08:08:25.076Z,82.07
2023-02-09T08:09:29.224Z,81.95
2023-02-09T08:10:31.141Z,81.83
2023-02-09T08:11:40.287Z,81.39
2023-02-09T08:13:00.702Z,80.90
2023-02-09T08:14:06.541Z,81.37
2023-02-09T08:15:10.556Z,81.51
2023-02-09T08:16:17.021Z,81.17
2023-02-09T08:17:20.129Z,81.23
2023-02-09T08:18:25.362Z,81.30
2023-02-09T08:19:28.205Z,80.90
2023-02-09T08:20:32.207Z,81.17
2023-02-09T08:21:37.620Z,81.13
2023-02-09T08:22:45.221Z,80.63
2023-02-09T08:23:52.628Z,81.24
2023-02-09T08:24:55.798Z,81.43
2023-02-09T08:26:00.355Z,80.87
2023-02-09T08:27:02.204Z,80.76
2023-02-09T08:28:06.051Z,81.25
2023-02-09T08:29:09.719Z,80.67
2023-02-09T08:30:16.068Z,80.88
2023-02-09T08:31:20.801Z,81.16
2023-02-09T08:32:23.334Z,80.76
2023-02-09T08:33:26.354Z,80.88
2023-02-09T08:34:29.384Z,80.85
2023-02-09T08:35:32.543Z,80.79
2023-02-09T08:36:37.553Z,80.68
2023-02-09T08:37:40.112Z,81.16
2023-02-09T08:38:44.335Z,81.20
2023-02-09T08:39:46.094Z,81.01
2023-02-09T08:40:49.595Z,81.10
2023-02-09T08:41:52.579Z,80.92
2023-02-09T08:42:54.599Z,80.69
2023-02-09T08:43:57.610Z,81.17
2023-02-09T08:45:00.396Z,81.33
2023-02-09T08:46:06.072Z,80.82
2023-02-09T08:47:09.037Z,80.95
2023-02-09T08:48:12.258Z,81.10
2023-02-09T08:49:16.057Z,81.11
2023-02-09T08:50:19.182Z,80.95
2023-02-09T08:51:23.550Z,81.00
2023-02-09T08:52:26.851Z,81.18
2023-02-09T08:53:29.869Z,80.88
2023-02-09T08:54:32.787Z,81.26
2023-02-09T08:55:38.529Z,81.11
2023-02-09T08:56:42.748Z,80.98
2023-02-09T08:57:46.225Z,80.98
2023-02-09T08:58:49.050Z,80.84
2023-02-09T08:59:52.440Z,80.73
2023-02-09T09:00:57.101Z,80.70
2023-02-09T09:02:01.354Z,80.95
2023-02-09T09:03:05.963Z,80.79
2023-02-09T09:04:09.856Z,80.75
2023-02-09T09:05:13.063Z,80.27
2023-02-09T09:06:14.964Z,80.59
2023-02-09T09:07:18.120Z,80.48
2023-02-09T09:08:20.889Z,80.82
2023-02-09T09:09:23.868Z,80.74
2023-02-09T09:10:27.637Z,80.73
2023-02-09T09:11:30.647Z,80.65
2023-02-09T09:12:33.408Z,80.75
2023-02-09T09:13:35.574Z,80.31
2023-02-09T09:14:39.276Z,80.20
2023-02-09T09:15:43.064Z,79.79
2023-02-09T09:16:45.981Z,80.34
2023-02-09T09:17:50.282Z,80.00
2023-02-09T09:18:53.042Z,80.19
2023-02-09T09:19:56.520Z,79.97
2023-02-09T09:20:59.532Z,80.27
2023-02-09T09:22:03.590Z,80.10
2023-02-09T09:23:06.503Z,79.63
2023-02-09T09:24:09.438Z,79.58
2023-02-09T09:25:12.185Z,78.92
2023-02-09T09:26:16.309Z,78.37
2023-02-09T09:27:19.137Z,78.80
2023-02-09T09:28:20.950Z,78.89
2023-02-09T09:29:24.574Z,79.60
2023-02-09T09:30:27.532Z,78.94
2023-02-09T09:31:30.654Z,78.92
2023-02-09T09:32:33.721Z,78.40
2023-02-09T09:33:38.203Z,78.74
2023-02-09T09:34:41.404Z,77.83
2023-02-09T09:35:44.519Z,78.00
2023-02-09T09:36:47.429Z,78.43
2023-02-09T09:37:50.181Z,78.31
2023-02-09T09:38:52.182Z,78.15
2023-02-09T09:39:54.932Z,78.07
2023-02-09T09:40:57.243Z,78.06
2023-02-09T09:42:00.910Z,77.01
2023-02-09T09:43:05.685Z,77.23
2023-02-09T09:44:14.120Z,76.96
2023-02-09T09:45:20.411Z,76.36
2023-02-09T09:46:25.013Z,75.77
2023-02-09T09:47:35.421Z,76.61
2023-02-09T09:48:41.870Z,76.47
2023-02-09T09:49:44.756Z,76.48
2023-02-09T09:50:46.796Z,76.29
2023-02-09T09:51:54.038Z,76.64
2023-02-09T09:52:59.259Z,75.41
2023-02-09T09:54:03.168Z,73.49
2023-02-09T09:55:08.442Z,73.09
2023-02-09T09:56:12.414Z,74.18
2023-02-09T09:57:20.338Z,73.54
2023-02-09T09:58:23.429Z,73.94
2023-02-09T09:59:28.056Z,73.87
2023-02-09T10:00:35.070Z,74.18
2023-02-09T10:01:38.309Z,73.25
2023-02-09T10:02:41.092Z,72.86
2023-02-09T10:03:45.571Z,72.78
2023-02-09T10:04:49.013Z,72.86
2023-02-09T10:05:52.154Z,71.92
2023-02-09T10:07:00.227Z,71.92
2023-02-09T10:08:06.573Z,72.37
2023-02-09T10:09:18.803Z,72.35
2023-02-09T10:10:26.566Z,71.93
2023-02-09T10:11:33.279Z,70.57
2023-02-09T10:12:39.300Z,70.88
2023-02-09T10:13:44.401Z,70.07
2023-02-09T10:14:47.457Z,69.36
2023-02-09T10:15:51.109Z,70.14
2023-02-09T10:16:53.910Z,70.46
2023-02-09T10:17:58.069Z,71.14
2023-02-09T10:19:03.554Z,70.75
2023-02-09T10:20:08.600Z,70.32
2023-02-09T10:21:13.361Z,69.64
2023-02-09T10:22:21.620Z,68.43
2023-02-09T10:23:25.738Z,68.98
2023-02-09T10:24:30.749Z,69.54
2023-02-09T10:25:40.632Z,68.21
2023-02-09T10:26:43.816Z,69.49
2023-02-09T10:27:45.969Z,69.18
2023-02-09T10:28:50.528Z,69.23
2023-02-09T10:29:53.501Z,69.55
2023-02-09T10:30:58.908Z,69.44
2023-02-09T10:32:07.280Z,67.95
2023-02-09T10:33:15.774Z,67.69
2023-02-09T10:34:22.657Z,67.66
2023-02-09T10:35:27.901Z,67.86
2023-02-09T10:36:33.442Z,67.90
2023-02-09T10:37:37.214Z,67.93
2023-02-09T10:38:41.097Z,66.45
2023-02-09T10:39:43.945Z,65.88
2023-02-09T10:40:48.188Z,67.92
2023-02-09T10:41:52.214Z,67.49
2023-02-09T10:42:56.794Z,67.94
2023-02-09T10:43:58.839Z,66.52
2023-02-09T10:45:07.598Z,66.66
2023-02-09T10:46:18.388Z,67.84
2023-02-09T10:47:29.837Z,67.83
2023-02-09T10:48:41.848Z,65.64
2023-02-09T10:49:53.317Z,64.56
2023-02-09T10:50:58.805Z,65.69
2023-02-09T10:52:11.513Z,66.68
2023-02-09T10:53:21.044Z,64.82
2023-02-09T10:54:24.874Z,63.53
2023-02-09T10:55:35.276Z,65.08
2023-02-09T10:56:46.177Z,65.16
2023-02-09T10:57:48.531Z,65.29
2023-02-09T10:58:53.975Z,64.68
2023-02-09T10:59:58.903Z,63.78
2023-02-09T11:01:08.308Z,64.77
2023-02-09T11:02:35.805Z,62.63
2023-02-09T11:03:39.572Z,62.65
2023-02-09T11:04:42.411Z,64.37
2023-02-09T11:05:48.539Z,64.63
2023-02-09T11:06:53.962Z,64.49
2023-02-09T11:08:00.040Z,64.37
2023-02-09T11:09:05.030Z,62.46
2023-02-09T11:10:12.804Z,62.94
2023-02-09T11:11:28.346Z,61.40
2023-02-09T11:12:31.169Z,61.59
2023-02-09T11:13:35.246Z,60.82
2023-02-09T11:14:38.240Z,61.86
2023-02-09T11:15:44.803Z,61.23
2023-02-09T11:16:56.868Z,59.01
2023-02-09T11:18:03.055Z,59.52
2023-02-09T11:19:12.891Z,59.34
2023-02-09T11:20:23.268Z,59.96
2023-02-09T11:21:34.009Z,59.71
2023-02-09T11:23:21.716Z,59.25
2023-02-09T11:24:28.825Z,60.29
2023-02-09T11:25:35.561Z,59.61
2023-02-09T11:26:43.293Z,59.69
2023-02-09T11:27:58.090Z,59.87
2023-02-09T11:29:07.742Z,59.59
2023-02-09T11:30:18.289Z,59.51
2023-02-09T11:31:37.985Z,58.00
2023-02-09T11:32:45.334Z,59.26
2023-02-09T11:33:52.276Z,58.89
2023-02-09T11:35:07.188Z,59.14
2023-02-09T11:36:20.377Z,59.13
2023-02-09T11:37:30.694Z,59.52
2023-02-09T11:38:38.015Z,59.42
2023-02-09T11:39:44.791Z,59.59
2023-02-09T11:40:50.707Z,59.01
2023-02-09T11:42:14.137Z,58.59
2023-02-09T11:43:20.331Z,59.22
2023-02-09T11:44:28.079Z,60.83
2023-02-09T11:45:34.628Z,58.04
2023-02-09T11:46:36.966Z,56.68
2023-02-09T11:47:53.067Z,58.19
2023-02-09T11:48:58.531Z,58.12
2023-02-09T11:50:03.000Z,58.79
2023-02-09T11:51:09.363Z,58.61
2023-02-09T11:52:17.133Z,59.32
2023-02-09T11:53:29.502Z,60.36
2023-02-09T11:54:34.095Z,60.97
2023-02-09T11:55:39.156Z,60.33
2023-02-09T11:56:44.412Z,60.90
2023-02-09T11:57:50.014Z,60.43
2023-02-09T11:58:55.031Z,59.20
2023-02-09T11:59:59.142Z,60.06
2023-02-09T12:01:15.995Z,59.22
2023-02-09T12:02:27.802Z,58.87
2023-02-09T12:03:30.626Z,59.03
2023-02-09T12:04:40.570Z,59.90
2023-02-09T12:05:44.359Z,59.45
2023-02-09T12:06:49.661Z,57.56
2023-02-09T12:08:08.530Z,57.80
2023-02-09T12:09:30.482Z,58.64
2023-02-09T12:10:36.763Z,57.49
2023-02-09T12:11:47.868Z,58.06
2023-02-09T12:12:54.665Z,56.08
2023-02-09T12:14:09.918Z,55.36
2023-02-09T12:15:16.135Z,56.17
2023-02-09T12:16:21.831Z,56.24
2023-02-09T12:17:28.907Z,55.81
2023-02-09T12:18:32.986Z,56.00
2023-02-09T12:19:36.674Z,56.51
2023-02-09T12:20:51.374Z,55.69
2023-02-09T12:21:54.181Z,56.15
2023-02-09T12:23:07.755Z,56.05
2023-02-09T12:24:34.010Z,57.45
2023-02-09T12:25:46.700Z,57.40
2023-02-09T12:26:55.882Z,56.53
2023-02-09T12:28:17.824Z,56.04
2023-02-09T12:29:28.904Z,56.85
2023-02-09T12:30:59.500Z,57.04
2023-02-09T12:32:15.852Z,55.28
2023-02-09T12:33:20.790Z,55.61
2023-02-09T12:34:30.331Z,55.01
2023-02-09T12:35:39.651Z,56.18
2023-02-09T12:37:19.779Z,56.29
2023-02-09T12:38:23.076Z,56.05
2023-02-09T12:39:27.501Z,55.30
2023-02-09T12:40:38.393Z,56.94
2023-02-09T12:42:17.655Z,56.96
2023-02-09T12:43:31.746Z,55.02
2023-02-09T12:44:38.673Z,55.78
2023-02-09T12:45:42.426Z,56.12
2023-02-09T12:46:52.784Z,56.70
2023-02-09T12:47:58.957Z,56.69
2023-02-09T12:49:11.031Z,57.33
2023-02-09T12:50:23.335Z,56.71
2023-02-09T12:51:42.869Z,55.61
2023-02-09T12:53:18.905Z,55.29
2023-02-09T12:54:37.797Z,56.96
2023-02-09T12:55:41.976Z,57.71
2023-02-09T12:56:44.727Z,56.45
2023-02-09T12:57:51.847Z,56.93
2023-02-09T12:58:56.660Z,57.94
2023-02-09T13:00:41.814Z,57.58
2023-02-09T13:02:04.693Z,57.37
2023-02-09T13:03:13.114Z,57.04
2023-02-09T13:04:16.485Z,57.37
2023-02-09T13:05:23.866Z,57.13
2023-02-09T13:06:30.598Z,56.71
2023-02-09T13:07:53.190Z,57.61
2023-02-09T13:08:58.446Z,56.36
2023-02-09T13:10:01.536Z,55.81
2023-02-09T13:11:13.204Z,56.47
2023-02-09T13:12:18.937Z,56.57
2023-02-09T13:13:35.550Z,56.83
2023-02-09T13:14:39.472Z,57.20
2023-02-09T13:15:47.209Z,55.64
2023-02-09T13:17:20.961Z,56.09
2023-02-09T13:18:29.489Z,56.80
2023-02-09T13:19:50.437Z,55.75
2023-02-09T13:21:03.506Z,56.50
2023-02-09T13:22:26.833Z,56.55
2023-02-09T13:23:35.492Z,56.91
2023-02-09T13:24:50.004Z,56.19
2023-02-09T13:25:59.486Z,54.77
2023-02-09T13:27:03.806Z,55.12
2023-02-09T13:28:10.081Z,54.05
2023-02-09T13:29:20.934Z,54.17
2023-02-09T13:30:30.457Z,53.76
2023-02-09T13:31:37.071Z,53.38
2023-02-09T13:32:50.035Z,54.36
2023-02-09T13:33:57.323Z,55.23
2023-02-09T13:35:03.175Z,54.00
2023-02-09T13:36:24.702Z,53.41
2023-02-09T13:37:31.669Z,53.35
2023-02-09T13:38:35.921Z,53.85
2023-02-09T13:39:40.945Z,53.80
2023-02-09T13:40:46.059Z,53.15
2023-02-09T13:41:50.033Z,52.87
2023-02-09T13:42:56.896Z,51.69
2023-02-09T13:43:59.687Z,52.62
2023-02-09T13:45:03.105Z,51.49
2023-02-09T13:46:06.528Z,49.94
2023-02-09T13:47:13.711Z,49.65
2023-02-09T13:48:23.530Z,48.55
2023-02-09T13:49:27.249Z,50.37
2023-02-09T13:50:30.509Z,50.22
2023-02-09T13:51:32.673Z,50.96
2023-02-09T13:52:39.159Z,50.52
2023-02-09T13:53:42.118Z,49.13
2023-02-09T13:54:45.187Z,47.89
2023-02-09T13:55:49.481Z,49.65
2023-02-09T13:56:52.399Z,48.37
2023-02-09T13:57:59.120Z,48.46
2023-02-09T13:59:02.228Z,48.02
2023-02-09T14:00:10.871Z,49.82
2023-02-09T14:01:26.828Z,49.12
2023-02-09T14:02:29.601Z,47.10
2023-02-09T14:03:34.515Z,47.00
2023-02-09T14:04:38.171Z,47.12
2023-02-09T14:05:42.767Z,48.23
2023-02-09T14:06:48.571Z,49.16